createdAt,value
2018-04-19T00:01:23.870Z,14.60
2018-04-19T00:03:51.915Z,14.60
2018-04-19T00:06:19.957Z,14.60
2018-04-19T00:08:48.019Z,14.60
2018-04-19T00:11:16.074Z,14.60
2018-04-19T00:13:44.115Z,14.60
2018-04-19T00:16:12.165Z,14.60
2018-04-19T00:18:40.206Z,14.60
2018-04-19T00:21:08.267Z,14.60
2018-04-19T00:23:36.310Z,14.60
2018-04-19T00:26:04.363Z,14.60
2018-04-19T00:28:32.402Z,14.50
2018-04-19T00:31:00.454Z,14.50
2018-04-19T00:33:28.500Z,14.50
2018-04-19T00:35:56.553Z,14.50
2018-04-19T00:38:24.590Z,14.50
2018-04-19T00:40:52.637Z,14.50
2018-04-19T00:43:20.678Z,14.50
2018-04-19T00:45:48.723Z,14.50
2018-04-19T00:48:16.787Z,14.50
2018-04-19T00:50:44.818Z,14.50
2018-04-19T00:53:12.854Z,14.50
2018-04-19T00:55:40.897Z,14.50
2018-04-19T00:58:08.942Z,14.50
2018-04-19T01:00:36.993Z,14.40
2018-04-19T01:03:05.038Z,14.40
2018-04-19T01:05:33.078Z,14.50
2018-04-19T01:08:01.114Z,14.40
2018-04-19T01:10:29.190Z,14.40
2018-04-19T01:12:57.237Z,14.40
2018-04-19T01:15:25.282Z,14.40
2018-04-19T01:17:53.330Z,14.40
2018-04-19T01:20:21.378Z,14.40
2018-04-19T01:22:49.419Z,14.40
2018-04-19T01:25:17.470Z,14.40
2018-04-19T01:27:46.276Z,14.40
2018-04-19T01:30:14.347Z,14.40
2018-04-19T01:32:42.400Z,14.40
2018-04-19T01:35:10.439Z,14.40
2018-04-19T01:37:38.518Z,14.40
2018-04-19T01:40:06.584Z,14.40
2018-04-19T01:42:34.632Z,14.40
2018-04-19T01:45:02.670Z,14.40
2018-04-19T01:47:30.717Z,14.30
2018-04-19T01:49:58.761Z,14.30
2018-04-19T01:52:26.804Z,14.30
2018-04-19T01:54:54.865Z,14.30
2018-04-19T01:57:22.902Z,14.30
2018-04-19T01:59:51.710Z,14.30
2018-04-19T02:02:19.758Z,14.30
2018-04-19T02:04:47.810Z,14.30
2018-04-19T02:07:15.870Z,14.30
2018-04-19T02:09:52.270Z,14.30
2018-04-19T02:12:20.333Z,14.30
2018-04-19T02:14:48.374Z,14.20
2018-04-19T02:17:22.666Z,14.10
2018-04-19T02:19:56.194Z,14.00
2018-04-19T02:22:30.498Z,13.90
2018-04-19T02:25:04.058Z,13.90
2018-04-19T02:27:32.108Z,13.90
2018-04-19T02:30:00.196Z,13.80
2018-04-19T02:32:28.240Z,13.80
2018-04-19T02:34:56.285Z,13.80
2018-04-19T02:37:24.325Z,13.70
2018-04-19T02:39:53.138Z,13.60
2018-04-19T02:42:21.190Z,13.60
2018-04-19T02:44:49.226Z,13.50
2018-04-19T02:47:17.284Z,13.40
2018-04-19T02:49:45.365Z,13.50
2018-04-19T02:52:13.398Z,13.40
2018-04-19T02:54:41.454Z,13.40
2018-04-19T02:57:09.610Z,13.40
2018-04-19T02:59:38.454Z,13.40
2018-04-19T03:02:06.503Z,13.30
2018-04-19T03:04:34.568Z,13.40
2018-04-19T03:07:02.617Z,13.40
2018-04-19T03:09:30.669Z,13.30
2018-04-19T03:11:58.759Z,13.30
2018-04-19T03:14:26.801Z,13.30
2018-04-19T03:16:54.838Z,13.20
2018-04-19T03:19:22.890Z,13.20
2018-04-19T03:21:50.933Z,13.10
2018-04-19T03:24:18.978Z,13.10
2018-04-19T03:26:47.038Z,13.10
2018-04-19T03:29:15.075Z,13.00
2018-04-19T03:31:43.884Z,12.90
2018-04-19T03:34:11.934Z,12.90
2018-04-19T03:36:39.970Z,12.90
2018-04-19T03:39:08.012Z,12.90
2018-04-19T03:41:36.066Z,12.80
2018-04-19T03:44:04.122Z,12.80
2018-04-19T03:46:32.930Z,12.70
2018-04-19T03:49:08.002Z,12.70
2018-04-19T03:51:36.076Z,12.70
2018-04-19T03:54:04.134Z,12.70
2018-04-19T03:56:32.197Z,12.70
2018-04-19T03:59:00.237Z,12.60
2018-04-19T04:01:29.037Z,12.60
2018-04-19T04:03:57.094Z,12.50
2018-04-19T04:06:25.130Z,12.50
2018-04-19T04:08:53.186Z,12.50
2018-04-19T04:11:21.218Z,12.40
2018-04-19T04:13:49.258Z,12.30
2018-04-19T04:16:29.186Z,12.20
2018-04-19T04:19:09.003Z,12.20
2018-04-19T04:21:48.882Z,12.20
2018-04-19T04:24:16.939Z,12.20
2018-04-19T04:26:45.039Z,12.20
2018-04-19T04:29:13.090Z,12.20
2018-04-19T04:31:41.962Z,12.20
2018-04-19T04:34:09.998Z,12.20
2018-04-19T04:36:38.050Z,12.20
2018-04-19T04:39:06.090Z,12.20
2018-04-19T04:41:34.125Z,12.20
2018-04-19T04:44:02.170Z,12.20
2018-04-19T04:46:30.210Z,12.20
2018-04-19T04:48:58.250Z,12.20
2018-04-19T04:51:26.310Z,12.20
2018-04-19T04:53:55.143Z,12.20
2018-04-19T04:56:23.154Z,12.10
2018-04-19T04:58:51.202Z,12.10
2018-04-19T05:01:29.385Z,12.20
2018-04-19T05:03:57.454Z,12.10
2018-04-19T05:06:25.494Z,12.20
2018-04-19T05:08:53.544Z,12.20
2018-04-19T05:11:21.590Z,12.20
2018-04-19T05:13:49.630Z,12.20
2018-04-19T05:16:17.666Z,12.20
2018-04-19T05:18:45.734Z,12.20
2018-04-19T05:21:13.779Z,12.30
2018-04-19T05:23:42.581Z,12.30
2018-04-19T05:26:10.701Z,12.30
2018-04-19T05:28:38.694Z,12.30
2018-04-19T05:31:06.754Z,12.30
2018-04-19T05:33:34.797Z,12.30
2018-04-19T05:36:03.609Z,12.40
2018-04-19T05:38:33.573Z,12.40
2018-04-19T05:41:01.618Z,12.40
2018-04-19T05:43:35.561Z,12.40
2018-04-19T05:46:03.622Z,12.50
2018-04-19T05:48:31.667Z,12.50
2018-04-19T05:51:01.621Z,12.50
2018-04-19T05:53:29.678Z,12.50
2018-04-19T05:55:57.733Z,12.50
2018-04-19T05:58:25.774Z,12.60
2018-04-19T06:00:53.834Z,12.60
2018-04-19T06:03:22.649Z,12.70
2018-04-19T06:05:50.691Z,12.70
2018-04-19T06:08:19.506Z,12.80
2018-04-19T06:10:47.550Z,12.80
2018-04-19T06:13:17.646Z,12.80
2018-04-19T06:15:45.733Z,12.90
2018-04-19T06:18:14.717Z,12.90
2018-04-19T06:20:42.782Z,13.00
2018-04-19T06:23:10.853Z,13.10
2018-04-19T06:25:38.895Z,13.10
2018-04-19T06:28:06.938Z,13.20
2018-04-19T06:30:35.766Z,13.30
2018-04-19T06:33:03.810Z,13.30
2018-04-19T06:35:31.897Z,13.30
2018-04-19T06:37:59.991Z,13.40
2018-04-19T06:40:33.880Z,13.50
2018-04-19T06:43:01.914Z,13.50
2018-04-19T06:45:30.727Z,13.70
2018-04-19T06:47:58.777Z,13.60
2018-04-19T06:50:27.985Z,13.80
2018-04-19T06:53:07.065Z,13.80
2018-04-19T06:55:35.158Z,13.90
2018-04-19T06:58:03.209Z,14.00
2018-04-19T07:00:31.270Z,14.10
2018-04-19T07:02:59.349Z,14.20
2018-04-19T07:05:27.393Z,14.40
2018-04-19T07:07:55.473Z,14.40
2018-04-19T07:10:23.533Z,14.50
2018-04-19T07:12:51.589Z,14.60
2018-04-19T07:15:20.417Z,14.80
2018-04-19T07:17:48.497Z,14.80
2018-04-19T07:20:16.595Z,14.90
2018-04-19T07:22:44.664Z,15.00
2018-04-19T07:25:12.734Z,15.10
2018-04-19T07:27:45.633Z,15.20
2018-04-19T07:30:13.691Z,15.40
2018-04-19T07:32:41.753Z,15.50
2018-04-19T07:35:09.838Z,15.50
2018-04-19T07:37:47.757Z,15.60
2018-04-19T07:40:16.602Z,15.80
2018-04-19T07:42:44.654Z,15.80
2018-04-19T07:45:12.711Z,15.90
2018-04-19T07:47:40.781Z,16.00
2018-04-19T07:50:08.821Z,16.10
2018-04-19T07:52:41.717Z,16.20
2018-04-19T07:55:09.794Z,16.20
2018-04-19T07:57:37.849Z,16.30
2018-04-19T08:00:05.915Z,16.50
2018-04-19T08:02:37.998Z,16.50
2018-04-19T08:05:06.053Z,16.60
2018-04-19T08:07:34.109Z,16.70
2018-04-19T08:10:02.173Z,16.80
2018-04-19T08:12:30.242Z,16.90
2018-04-19T08:14:58.302Z,17.00
2018-04-19T08:17:26.354Z,17.10
2018-04-19T08:19:54.438Z,17.20
2018-04-19T08:22:23.505Z,17.30
2018-04-19T08:24:51.562Z,17.40
2018-04-19T08:27:19.633Z,17.40
2018-04-19T08:29:47.713Z,17.50
2018-04-19T08:32:15.770Z,17.60
2018-04-19T08:34:43.858Z,17.70
2018-04-19T08:37:11.926Z,17.80
2018-04-19T08:39:40.022Z,17.90
2018-04-19T08:42:08.878Z,18.10
2018-04-19T08:44:36.988Z,18.10
2018-04-19T08:47:05.021Z,18.20
2018-04-19T08:49:34.150Z,18.30
2018-04-19T08:52:02.217Z,18.40
2018-04-19T08:54:30.291Z,18.50
2018-04-19T08:56:58.362Z,18.50
2018-04-19T08:59:26.425Z,18.70
2018-04-19T09:01:54.489Z,18.80
2018-04-19T09:04:22.628Z,18.80
2018-04-19T09:06:50.718Z,18.90
2018-04-19T09:09:18.774Z,19.10
2018-04-19T09:11:46.830Z,19.20
2018-04-19T09:14:14.929Z,19.20
2018-04-19T09:16:43.002Z,19.20
2018-04-19T09:19:15.617Z,19.50
2018-04-19T09:21:43.674Z,19.40
2018-04-19T09:24:11.749Z,19.50
2018-04-19T09:26:39.859Z,19.60
2018-04-19T09:29:07.931Z,19.60
2018-04-19T09:31:35.969Z,19.80
2018-04-19T09:34:04.055Z,19.90
2018-04-19T09:36:33.080Z,20.10
2018-04-19T09:39:01.118Z,20.10
2018-04-19T09:41:29.971Z,20.30
2018-04-19T09:43:58.052Z,20.30
2018-04-19T09:46:26.126Z,20.40
2018-04-19T09:48:54.190Z,20.50
2018-04-19T09:51:23.133Z,20.60
2018-04-19T09:53:51.210Z,20.80
2018-04-19T09:56:20.062Z,20.80
2018-04-19T10:01:52.112Z,20.90
2018-04-19T10:04:26.648Z,21.00
2018-04-19T10:06:54.747Z,21.00
2018-04-19T10:09:23.595Z,21.10
2018-04-19T10:11:51.660Z,21.10
2018-04-19T10:14:19.754Z,21.20
2018-04-19T10:16:47.829Z,21.30
2018-04-19T10:19:27.948Z,21.50
2018-04-19T10:21:56.018Z,21.50
2018-04-19T10:24:24.067Z,21.50
2018-04-19T10:26:57.025Z,21.60
2018-04-19T10:29:25.917Z,21.80
2018-04-19T10:31:53.978Z,21.70
2018-04-19T10:34:22.021Z,21.80
2018-04-19T10:36:50.316Z,21.90
2018-04-19T10:39:18.348Z,21.90
2018-04-19T10:41:46.392Z,22.00
2018-04-19T10:44:14.422Z,22.10
2018-04-19T10:46:42.551Z,22.20
2018-04-19T10:49:11.273Z,22.30
2018-04-19T10:51:45.930Z,22.40
2018-04-19T10:54:14.771Z,22.40
2018-04-19T10:56:42.783Z,22.40
2018-04-19T10:59:10.921Z,22.50
2018-04-19T11:01:38.994Z,22.60
2018-04-19T11:04:07.048Z,22.60
2018-04-19T11:06:37.113Z,22.60
2018-04-19T11:09:05.187Z,22.70
2018-04-19T11:11:33.274Z,22.80
2018-04-19T11:14:02.133Z,22.90
2018-04-19T11:16:30.966Z,23.00
2018-04-19T11:18:59.117Z,22.90
2018-04-19T11:21:27.918Z,23.00
2018-04-19T11:23:56.774Z,23.10
2018-04-19T11:26:25.658Z,23.20
2018-04-19T11:28:53.731Z,23.20
2018-04-19T11:31:21.830Z,23.20
2018-04-19T11:33:50.725Z,23.40
2018-04-19T11:36:19.538Z,23.50
2018-04-19T11:38:47.578Z,23.50
2018-04-19T11:41:18.463Z,23.60
2018-04-19T11:43:46.509Z,23.60
2018-04-19T11:46:14.539Z,23.60
2018-04-19T11:48:42.640Z,23.60
2018-04-19T11:51:11.453Z,23.90
2018-04-19T11:53:39.531Z,23.90
2018-04-19T11:56:11.677Z,23.90
2018-04-19T11:58:39.743Z,23.80
2018-04-19T12:01:07.819Z,24.00
2018-04-19T12:03:35.998Z,24.00
2018-04-19T12:06:04.078Z,24.20
2018-04-19T12:08:38.241Z,24.30
2018-04-19T12:11:06.316Z,24.40
2018-04-19T12:13:34.433Z,24.40
2018-04-19T12:16:03.235Z,24.40
2018-04-19T12:21:24.482Z,24.40
2018-04-19T12:23:52.577Z,24.60
2018-04-19T12:26:20.594Z,24.70
2018-04-19T12:28:48.696Z,24.80
2018-04-19T12:31:16.779Z,24.80
2018-04-19T12:33:44.854Z,24.80
2018-04-19T12:36:12.912Z,24.80
2018-04-19T12:38:40.951Z,24.90
2018-04-19T12:41:08.991Z,24.90
2018-04-19T12:43:38.774Z,25.00
2018-04-19T12:46:06.866Z,25.00
2018-04-19T12:48:34.937Z,25.10
2018-04-19T12:51:03.057Z,25.20
2018-04-19T12:53:31.898Z,25.30
2018-04-19T12:56:06.739Z,25.30
2018-04-19T12:58:35.541Z,25.60
2018-04-19T13:01:04.360Z,25.70
2018-04-19T13:03:32.423Z,25.70
2018-04-19T13:06:00.462Z,25.80
2018-04-19T13:08:29.308Z,25.80
2018-04-19T13:10:57.397Z,25.80
2018-04-19T13:13:25.467Z,25.80
2018-04-19T13:15:53.545Z,25.90
2018-04-19T13:18:21.585Z,26.00
2018-04-19T13:20:49.640Z,26.00
2018-04-19T13:23:17.718Z,26.00
2018-04-19T13:25:45.869Z,26.00
2018-04-19T13:28:13.862Z,26.10
2018-04-19T13:30:45.904Z,26.20
2018-04-19T13:33:13.948Z,26.20
2018-04-19T13:35:42.782Z,26.40
2018-04-19T13:38:10.866Z,26.30
2018-04-19T13:40:38.959Z,26.50
2018-04-19T13:43:11.873Z,26.60
2018-04-19T13:45:40.687Z,26.60
2018-04-19T13:48:08.722Z,26.60
2018-04-19T13:50:36.800Z,26.60
2018-04-19T13:53:05.642Z,26.70
2018-04-19T13:55:33.783Z,26.70
2018-04-19T13:58:01.887Z,26.70
2018-04-19T14:00:29.999Z,26.80
2018-04-19T14:02:58.082Z,26.80
2018-04-19T14:05:26.960Z,26.90
2018-04-19T14:07:54.953Z,26.90
2018-04-19T14:10:23.031Z,27.00
2018-04-19T14:13:14.782Z,27.10
2018-04-19T14:15:42.867Z,27.10
2018-04-19T14:18:10.927Z,27.10
2018-04-19T14:20:39.002Z,27.10
2018-04-19T14:23:07.106Z,27.10
2018-04-19T14:25:35.239Z,27.20
2018-04-19T14:28:03.273Z,27.20
2018-04-19T14:30:32.103Z,27.20
2018-04-19T14:33:00.141Z,27.20
2018-04-19T14:35:37.086Z,27.20
2018-04-19T14:38:05.133Z,27.20
2018-04-19T14:40:33.218Z,27.30
2018-04-19T14:43:01.307Z,27.30
2018-04-19T14:45:29.353Z,27.30
2018-04-19T14:47:57.429Z,27.40
2018-04-19T14:50:36.337Z,27.40
2018-04-19T14:53:04.412Z,27.40
2018-04-19T14:55:32.540Z,27.40
2018-04-19T14:58:00.597Z,27.40
2018-04-19T15:00:28.645Z,27.40
2018-04-19T15:02:56.709Z,27.40
2018-04-19T15:05:24.766Z,27.40
2018-04-19T15:07:52.835Z,27.40
2018-04-19T15:10:20.850Z,27.40
2018-04-19T15:12:48.968Z,27.60
2018-04-19T15:15:17.073Z,27.70
2018-04-19T15:17:45.116Z,28.00
2018-04-19T15:20:13.210Z,28.50
2018-04-19T15:22:41.254Z,29.30
2018-04-19T15:25:09.351Z,30.40
2018-04-19T15:27:37.499Z,31.40
2018-04-19T15:30:05.639Z,32.40
2018-04-19T15:32:33.683Z,33.10
2018-04-19T15:35:01.775Z,33.50
2018-04-19T15:37:34.647Z,34.00
2018-04-19T15:40:02.718Z,33.90
2018-04-19T15:42:30.789Z,33.90
2018-04-19T15:44:58.869Z,33.10
2018-04-19T15:47:27.728Z,31.40
2018-04-19T15:49:55.810Z,31.30
2018-04-19T15:52:23.886Z,30.60
2018-04-19T15:54:51.945Z,29.90
2018-04-19T15:57:20.034Z,29.40
2018-04-19T15:59:48.067Z,29.00
2018-04-19T16:02:17.242Z,28.60
2018-04-19T16:04:45.671Z,28.30
2018-04-19T16:07:15.722Z,28.00
2018-04-19T16:09:44.531Z,27.70
2018-04-19T16:12:12.622Z,27.70
2018-04-19T16:14:40.589Z,27.60
2018-04-19T16:17:08.740Z,27.50
2018-04-19T16:19:37.580Z,27.30
2018-04-19T16:24:56.999Z,27.20
2018-04-19T16:27:25.823Z,27.10
2018-04-19T16:29:53.855Z,27.10
2018-04-19T16:32:22.622Z,27.10
2018-04-19T16:34:50.729Z,27.00
2018-04-19T16:37:18.774Z,27.10
2018-04-19T16:39:46.845Z,27.10
2018-04-19T16:42:14.882Z,27.00
2018-04-19T16:44:42.932Z,27.10
2018-04-19T16:47:10.967Z,27.20
2018-04-19T16:49:39.096Z,27.70
2018-04-19T16:52:07.137Z,29.30
2018-04-19T16:54:35.178Z,31.20
2018-04-19T16:57:04.037Z,34.20
2018-04-19T16:59:32.072Z,34.10
2018-04-19T17:02:00.159Z,35.30
2018-04-19T17:04:28.172Z,36.10
2018-04-19T17:06:56.216Z,36.80
2018-04-19T17:09:24.281Z,37.10
2018-04-19T17:11:52.380Z,37.50
2018-04-19T17:14:20.439Z,37.40
2018-04-19T17:16:48.435Z,37.50
2018-04-19T17:19:16.575Z,37.40
2018-04-19T17:21:44.622Z,37.20
2018-04-19T17:24:12.731Z,37.30
2018-04-19T17:26:40.826Z,37.20
2018-04-19T17:29:08.903Z,37.00
2018-04-19T17:31:36.999Z,36.60
2018-04-19T17:34:05.083Z,36.10
2018-04-19T17:36:33.172Z,35.90
2018-04-19T17:39:01.250Z,35.60
2018-04-19T17:41:29.299Z,34.90
2018-04-19T17:43:57.338Z,34.60
2018-04-19T17:46:25.438Z,34.20
2018-04-19T17:48:53.517Z,33.80
2018-04-19T17:51:21.534Z,33.30
2018-04-19T17:53:50.371Z,32.10
2018-04-19T17:56:18.418Z,32.00
2018-04-19T17:58:46.452Z,31.90
2018-04-19T18:01:14.599Z,31.60
2018-04-19T18:03:42.651Z,31.40
2018-04-19T18:06:10.723Z,31.10
2018-04-19T18:08:38.774Z,30.80
2018-04-19T18:11:06.874Z,30.30
2018-04-19T18:13:35.882Z,29.50
2018-04-19T18:16:03.950Z,28.60
2018-04-19T18:18:32.029Z,27.80
2018-04-19T18:21:00.093Z,27.10
2018-04-19T18:23:28.162Z,26.50
2018-04-19T18:25:56.193Z,25.90
2018-04-19T18:28:24.290Z,25.40
2018-04-19T18:30:52.306Z,25.00
2018-04-19T18:33:21.183Z,24.20
2018-04-19T18:35:49.242Z,24.10
2018-04-19T18:38:17.318Z,23.90
2018-04-19T18:40:47.347Z,23.60
2018-04-19T18:43:15.413Z,23.40
2018-04-19T18:45:43.462Z,23.20
2018-04-19T18:48:11.523Z,23.10
2018-04-19T18:50:39.557Z,22.90
2018-04-19T18:53:09.341Z,22.70
2018-04-19T18:55:37.419Z,22.60
2018-04-19T18:58:05.483Z,22.50
2018-04-19T19:00:33.562Z,22.30
2018-04-19T19:03:01.659Z,22.20
2018-04-19T19:05:30.633Z,21.90
2018-04-19T19:07:59.486Z,21.70
2018-04-19T19:10:27.645Z,21.70
2018-04-19T19:12:55.731Z,21.60
2018-04-19T19:18:50.140Z,21.50
2018-04-19T19:21:18.190Z,21.40
2018-04-19T19:23:46.989Z,21.10
2018-04-19T19:26:19.878Z,21.10
2018-04-19T19:28:47.939Z,21.00
2018-04-19T19:31:15.960Z,20.90
2018-04-19T19:33:44.014Z,20.80
2018-04-19T19:36:12.069Z,20.70
2018-04-19T19:38:40.888Z,20.50
2018-04-19T19:41:08.948Z,20.50
2018-04-19T19:43:36.990Z,20.40
2018-04-19T19:46:05.807Z,20.20
2018-04-19T19:48:33.858Z,20.10
2018-04-19T19:51:01.900Z,20.10
2018-04-19T19:53:29.937Z,20.00
2018-04-19T19:55:57.994Z,19.90
2018-04-19T19:58:26.038Z,19.80
2018-04-19T20:00:54.854Z,19.60
2018-04-19T20:03:22.898Z,19.60
2018-04-19T20:05:51.727Z,19.40
2018-04-19T20:08:19.750Z,19.40
2018-04-19T20:10:48.594Z,19.30
2018-04-19T20:13:16.642Z,19.30
2018-04-19T20:15:44.693Z,19.20
2018-04-19T20:18:12.756Z,19.20
2018-04-19T20:20:40.799Z,19.10
2018-04-19T20:23:08.841Z,19.10
2018-04-19T20:25:36.910Z,19.00
2018-04-19T20:28:04.946Z,18.90
2018-04-19T20:30:33.753Z,18.80
2018-04-19T20:33:01.813Z,18.80
2018-04-19T20:35:29.950Z,18.70
2018-04-19T20:37:57.970Z,18.70
2018-04-19T20:40:26.031Z,18.60
2018-04-19T20:42:54.070Z,18.60
2018-04-19T20:45:22.137Z,18.50
2018-04-19T20:47:50.193Z,18.50
2018-04-19T20:50:18.229Z,18.40
2018-04-19T20:52:46.344Z,18.40
2018-04-19T20:55:14.395Z,18.30
2018-04-19T20:57:42.430Z,18.30
2018-04-19T21:00:11.238Z,18.10
2018-04-19T21:02:39.297Z,18.10
2018-04-19T21:05:07.343Z,18.10
2018-04-19T21:07:35.390Z,18.00
2018-04-19T21:10:03.449Z,18.00
2018-04-19T21:12:31.486Z,17.90
2018-04-19T21:15:00.298Z,17.80
2018-04-19T21:17:28.366Z,17.80
2018-04-19T21:19:56.409Z,17.70
2018-04-19T21:22:25.262Z,17.70
2018-04-19T21:24:53.318Z,17.60
2018-04-19T21:27:21.353Z,17.60
2018-04-19T21:29:49.390Z,17.60
2018-04-19T21:32:17.442Z,17.60
2018-04-19T21:34:45.492Z,17.50
2018-04-19T21:37:13.534Z,17.50
2018-04-19T21:39:42.414Z,17.40
2018-04-19T21:42:10.450Z,17.40
2018-04-19T21:44:38.490Z,17.30
2018-04-19T21:47:06.586Z,17.30
2018-04-19T21:49:34.621Z,17.30
2018-04-19T21:52:02.674Z,17.20
2018-04-19T21:54:30.715Z,17.20
2018-04-19T21:56:58.767Z,17.10
2018-04-19T21:59:26.809Z,17.10
2018-04-19T22:01:54.861Z,17.10
2018-04-19T22:04:22.898Z,17.00
2018-04-19T22:06:50.948Z,17.00
2018-04-19T22:09:19.030Z,17.00
2018-04-19T22:11:47.067Z,16.90
2018-04-19T22:14:15.101Z,16.90
2018-04-19T22:16:43.164Z,16.90
2018-04-19T22:19:11.967Z,16.70
2018-04-19T22:21:40.018Z,16.70
2018-04-19T22:24:08.071Z,16.70
2018-04-19T22:26:36.130Z,16.60
2018-04-19T22:29:04.170Z,16.60
2018-04-19T22:31:32.213Z,16.50
2018-04-19T22:34:00.259Z,16.50
2018-04-19T22:36:28.306Z,16.50
2018-04-19T22:38:56.369Z,16.50
2018-04-19T22:41:25.197Z,16.40
2018-04-19T22:43:53.234Z,16.40
2018-04-19T22:46:21.282Z,16.40
2018-04-19T22:48:49.338Z,16.40
2018-04-19T22:51:17.379Z,16.30
2018-04-19T22:53:45.442Z,16.30
2018-04-19T22:56:13.490Z,16.20
2018-04-19T22:58:41.523Z,16.20
2018-04-19T23:01:09.573Z,16.20
2018-04-19T23:03:37.629Z,16.20
2018-04-19T23:06:05.681Z,16.10
2018-04-19T23:08:33.726Z,16.10
2018-04-19T23:11:01.782Z,16.00
2018-04-19T23:13:29.819Z,16.00
2018-04-19T23:15:57.862Z,16.00
2018-04-19T23:18:39.447Z,15.90
2018-04-19T23:21:08.266Z,15.90
2018-04-19T23:23:36.298Z,15.80
2018-04-19T23:26:04.346Z,15.80
2018-04-19T23:28:32.419Z,15.70
2018-04-19T23:31:00.454Z,15.70
2018-04-19T23:33:28.502Z,15.70
2018-04-19T23:35:57.339Z,15.70
2018-04-19T23:38:25.378Z,15.70
2018-04-19T23:40:53.424Z,15.60
2018-04-19T23:43:21.465Z,15.60
2018-04-19T23:45:49.506Z,15.60
2018-04-19T23:48:17.554Z,15.60
2018-04-19T23:50:46.382Z,15.50
2018-04-19T23:53:14.437Z,15.50
2018-04-19T23:55:42.541Z,15.60
2018-04-19T23:58:10.594Z,15.50
